Time;durP1;ratioP1;P1;durP2;ratioP2;P2;SDS_P1;SDS_P2;PMS_P1;PMS_P2;Temp;Humidity;BMP_temperature;BMP_pressure;BME280_temperature;BME280_humidity;BME280_pressure;Samples;Min_cycle;Max_cycle;Signal;HPM_P1;HPM_P2
2023/07/08 00:02:10;;;;;;;7.45;5.18;;;16.60;99.90;;;;;;4990449;28;20420;-47
2023/07/08 00:04:36;;;;;;;6.82;4.65;;;16.50;99.90;;;;;;4990017;28;20560;-47
2023/07/08 00:07:01;;;;;;;6.78;4.53;;;16.50;99.90;;;;;;4990197;28;20026;-50
2023/07/08 00:09:27;;;;;;;4.88;4.03;;;16.60;99.90;;;;;;4990033;28;20490;-50
2023/07/08 00:11:52;;;;;;;6.75;3.90;;;16.60;99.90;;;;;;4990023;28;20034;-50
2023/07/08 00:14:18;;;;;;;5.10;4.20;;;16.70;99.90;;;;;;4972467;28;20061;-48
2023/07/08 00:16:44;;;;;;;5.18;4.13;;;16.60;99.90;;;;;;4989849;28;20417;-49
2023/07/08 00:19:10;;;;;;;6.32;4.35;;;16.60;99.90;;;;;;5035779;28;20039;-51
2023/07/08 00:21:36;;;;;;;8.00;4.03;;;16.50;99.90;;;;;;5073352;28;20018;-51
2023/07/08 00:24:02;;;;;;;6.00;4.07;;;16.40;99.90;;;;;;4989902;28;20039;-50
2023/07/08 00:26:29;;;;;;;8.68;4.78;;;16.40;99.90;;;;;;4990121;28;20087;-50
2023/07/08 00:28:56;;;;;;;9.20;4.78;;;16.40;99.90;;;;;;4989434;28;20026;-49
2023/07/08 00:31:25;;;;;;;7.07;4.47;;;16.50;99.90;;;;;;4989747;28;20037;-49
2023/07/08 00:33:55;;;;;;;6.18;4.55;;;16.40;99.90;;;;;;4989731;28;20033;-51
2023/07/08 00:36:20;;;;;;;6.50;4.18;;;16.40;99.90;;;;;;4989591;28;20019;-48
2023/07/08 00:38:46;;;;;;;7.07;4.38;;;16.40;99.90;;;;;;4989312;28;20556;-48
2023/07/08 00:41:22;;;;;;;5.38;4.50;;;16.30;99.90;;;;;;4990316;28;20106;-50
2023/07/08 00:43:53;;;;;;;6.18;4.07;;;16.20;99.90;;;;;;4989634;28;20023;-50
2023/07/08 00:46:29;;;;;;;;;;;16.10;99.90;;;;;;4990324;28;20542;-49
2023/07/08 00:49:15;;;;;;;4.93;4.07;;;16.10;99.90;;;;;;5023373;28;20377;-51
2023/07/08 00:51:41;;;;;;;7.95;4.80;;;16.00;99.90;;;;;;5092167;28;20032;-51
2023/07/08 00:54:14;;;;;;;7.38;4.95;;;16.00;99.90;;;;;;5092306;28;20016;-51
2023/07/08 00:56:43;;;;;;;6.25;4.45;;;16.00;99.90;;;;;;4987744;28;20051;-49
2023/07/08 00:59:20;;;;;;;4.53;3.90;;;16.00;99.90;;;;;;5056618;28;20030;-49
2023/07/08 01:01:46;;;;;;;8.23;4.10;;;15.90;99.90;;;;;;4989750;28;20109;-51
2023/07/08 01:04:24;;;;;;;4.18;3.67;;;15.90;99.90;;;;;;4989558;28;20188;-51
2023/07/08 01:06:57;;;;;;;5.13;4.03;;;15.80;99.90;;;;;;4989197;28;20034;-49
2023/07/08 01:09:27;;;;;;;5.97;4.40;;;15.80;99.90;;;;;;4989480;28;20022;-51
2023/07/08 01:11:54;;;;;;;5.95;4.47;;;15.70;99.90;;;;;;4989617;28;20011;-51
2023/07/08 01:14:21;;;;;;;6.68;4.07;;;15.60;99.90;;;;;;4989428;28;20564;-51
2023/07/08 01:16:46;;;;;;;5.50;4.18;;;15.60;99.90;;;;;;4988522;28;20054;-50
2023/07/08 01:19:18;;;;;;;7.88;4.75;;;15.60;99.90;;;;;;5016837;28;20472;-50
2023/07/08 01:21:53;;;;;;;4.35;3.95;;;15.60;99.90;;;;;;5073683;28;20024;-48
2023/07/08 01:24:19;;;;;;;4.88;4.15;;;15.50;99.90;;;;;;5091864;28;20031;-48
2023/07/08 01:26:46;;;;;;;4.85;4.05;;;15.40;99.90;;;;;;5030080;28;20033;-48
2023/07/08 01:29:12;;;;;;;6.75;4.53;;;15.40;99.90;;;;;;4989022;28;20101;-50
2023/07/08 01:31:38;;;;;;;4.53;4.10;;;15.40;99.90;;;;;;4971439;28;20072;-50
2023/07/08 01:34:05;;;;;;;7.25;4.30;;;15.30;99.90;;;;;;4988797;28;20023;-51
2023/07/08 01:36:38;;;;;;;8.52;4.65;;;15.30;99.90;;;;;;4988807;28;20027;-51
2023/07/08 01:39:03;;;;;;;5.93;4.50;;;15.30;99.90;;;;;;4988511;28;20041;-51
2023/07/08 01:41:29;;;;;;;7.03;4.05;;;15.40;99.90;;;;;;4989152;28;20062;-49
2023/07/08 01:43:54;;;;;;;6.70;4.40;;;15.30;99.90;;;;;;4988782;28;20076;-51
2023/07/08 01:46:26;;;;;;;6.88;4.60;;;15.30;99.90;;;;;;4987975;28;20026;-50
2023/07/08 01:48:56;;;;;;;5.88;4.10;;;15.30;99.90;;;;;;5018248;28;20102;-49
2023/07/08 01:51:22;;;;;;;4.90;4.32;;;15.30;99.90;;;;;;5091005;28;20103;-51
2023/07/08 01:53:48;;;;;;;11.23;4.70;;;15.20;99.90;;;;;;5091188;28;20020;-49
2023/07/08 01:56:14;;;;;;;5.72;4.05;;;15.20;99.90;;;;;;5090826;28;20504;-50
2023/07/08 01:58:40;;;;;;;8.68;4.40;;;15.20;99.90;;;;;;4997873;28;20033;-51
2023/07/08 02:01:06;;;;;;;7.82;4.45;;;15.20;99.90;;;;;;4988880;28;20109;-49
2023/07/08 02:03:32;;;;;;;4.40;3.97;;;15.20;99.90;;;;;;4987876;28;20037;-51
2023/07/08 02:05:57;;;;;;;7.47;4.25;;;15.10;99.90;;;;;;4988445;28;20027;-48
2023/07/08 02:08:23;;;;;;;6.05;4.25;;;15.10;99.90;;;;;;4970702;28;20105;-51
2023/07/08 02:10:55;;;;;;;6.18;4.47;;;15.20;99.90;;;;;;4988377;28;20432;-48
2023/07/08 02:13:22;;;;;;;9.55;4.93;;;15.10;99.90;;;;;;4970774;28;20476;-48
2023/07/08 02:15:48;;;;;;;6.80;4.28;;;15.00;99.90;;;;;;4970656;28;20033;-48
2023/07/08 02:18:13;;;;;;;7.43;4.75;;;15.00;99.90;;;;;;4989692;28;20034;-51
2023/07/08 02:20:39;;;;;;;7.13;4.93;;;15.00;99.90;;;;;;5053185;28;20314;-52
2023/07/08 02:23:04;;;;;;;7.43;4.68;;;15.00;99.90;;;;;;5090285;28;20068;-50
2023/07/08 02:25:30;;;;;;;9.30;4.75;;;15.00;99.90;;;;;;5090652;28;20060;-50
2023/07/08 02:27:57;;;;;;;9.25;5.47;;;14.90;99.90;;;;;;5034908;28;20445;-50
2023/07/08 02:30:23;;;;;;;7.82;4.78;;;14.90;99.90;;;;;;4987383;28;20427;-50
2023/07/08 02:32:56;;;;;;;5.90;5.10;;;14.90;99.90;;;;;;4988066;28;20049;-47
2023/07/08 02:35:25;;;;;;;6.72;5.20;;;14.90;99.90;;;;;;4987718;28;20034;-49
2023/07/08 02:37:51;;;;;;;7.95;4.55;;;14.80;99.90;;;;;;4987419;28;20194;-51
2023/07/08 02:40:16;;;;;;;8.80;5.13;;;14.80;99.90;;;;;;4987799;28;20111;-48
2023/07/08 02:42:42;;;;;;;5.10;4.32;;;14.80;99.90;;;;;;4988088;28;20065;-49
2023/07/08 02:45:08;;;;;;;5.70;4.47;;;14.80;99.90;;;;;;4970636;28;20034;-51
2023/07/08 02:47:33;;;;;;;6.93;5.00;;;14.80;99.90;;;;;;4987817;28;20019;-49
2023/07/08 02:49:59;;;;;;;8.43;5.65;;;14.80;99.90;;;;;;4998791;28;20062;-48
2023/07/08 02:52:24;;;;;;;8.48;5.60;;;14.80;99.90;;;;;;5071674;28;20105;-50
2023/07/08 02:54:50;;;;;;;9.43;5.70;;;14.80;99.90;;;;;;5089913;28;20456;-51
2023/07/08 02:57:15;;;;;;;8.52;5.25;;;14.70;99.90;;;;;;5090082;28;20034;-48
2023/07/08 02:59:41;;;;;;;6.57;5.38;;;14.70;99.90;;;;;;4997904;28;20182;-48
2023/07/08 03:02:06;;;;;;;5.35;4.68;;;14.70;99.90;;;;;;4987658;28;20034;-51
2023/07/08 03:04:32;;;;;;;8.70;5.50;;;14.70;99.90;;;;;;4987477;28;20026;-48
2023/07/08 03:06:58;;;;;;;6.45;5.10;;;14.70;99.90;;;;;;4969806;28;20030;-49
2023/07/08 03:09:24;;;;;;;5.97;5.35;;;14.70;99.90;;;;;;4986831;28;20037;-50
2023/07/08 03:11:49;;;;;;;6.93;5.80;;;14.70;99.90;;;;;;4987293;28;20035;-48
2023/07/08 03:14:15;;;;;;;7.40;5.30;;;14.70;99.90;;;;;;4987235;28;20034;-48
2023/07/08 03:16:40;;;;;;;6.82;5.88;;;14.70;99.90;;;;;;4987338;28;20435;-49
2023/07/08 03:19:14;;;;;;;7.60;5.47;;;14.70;99.90;;;;;;5023866;28;20032;-51
2023/07/08 03:21:41;;;;;;;7.55;5.97;;;14.70;99.90;;;;;;4992568;28;20034;-48
2023/07/08 03:24:10;;;;;;;7.45;5.90;;;14.80;99.90;;;;;;4987446;28;20031;-48
2023/07/08 03:26:36;;;;;;;7.27;5.30;;;14.70;99.90;;;;;;5054262;28;20064;-48
2023/07/08 03:29:02;;;;;;;5.88;5.05;;;14.70;99.90;;;;;;4986568;28;20065;-48
2023/07/08 03:31:28;;;;;;;8.20;5.43;;;14.80;99.90;;;;;;4987142;28;20102;-51
2023/07/08 03:33:53;;;;;;;6.10;5.18;;;14.70;99.90;;;;;;4987461;28;20524;-50
2023/07/08 03:36:22;;;;;;;7.72;5.72;;;14.80;99.90;;;;;;4987095;28;20043;-50
2023/07/08 03:38:56;;;;;;;8.90;5.50;;;14.80;99.90;;;;;;4986648;28;20076;-49
2023/07/08 03:41:22;;;;;;;6.03;5.43;;;14.80;99.90;;;;;;4986864;28;20027;-50
2023/07/08 03:43:47;;;;;;;8.40;5.88;;;14.80;99.90;;;;;;4987308;28;20384;-49
2023/07/08 03:46:14;;;;;;;7.68;5.93;;;14.80;99.90;;;;;;4986489;28;20066;-51
2023/07/08 03:48:40;;;;;;;8.45;6.18;;;14.80;99.90;;;;;;5004373;28;20024;-50
2023/07/08 03:51:25;;;;;;;13.88;5.95;;;14.80;99.90;;;;;;4990921;28;20038;-51
2023/07/08 03:53:51;;;;;;;6.68;5.72;;;14.80;99.90;;;;;;4986798;28;20034;-51
2023/07/08 03:56:17;;;;;;;7.28;5.65;;;14.80;99.90;;;;;;4986771;28;20045;-52
2023/07/08 03:58:42;;;;;;;6.10;5.50;;;14.80;99.90;;;;;;4986701;28;20073;-52
2023/07/08 04:01:20;;;;;;;7.47;5.72;;;14.80;99.90;;;;;;4986723;28;20041;-49
2023/07/08 04:03:46;;;;;;;6.57;5.85;;;14.90;99.90;;;;;;4986925;28;20035;-52
2023/07/08 04:06:12;;;;;;;6.05;5.10;;;14.90;99.90;;;;;;4969283;28;20045;-52
2023/07/08 04:08:38;;;;;;;9.20;5.43;;;14.90;99.90;;;;;;4985931;28;20027;-52
2023/07/08 04:11:03;;;;;;;7.40;6.05;;;14.90;99.90;;;;;;4986133;28;20499;-52
2023/07/08 04:13:29;;;;;;;7.18;5.70;;;14.90;99.90;;;;;;4969490;28;20030;-52
2023/07/08 04:15:59;;;;;;;6.80;5.55;;;15.00;99.90;;;;;;4986663;28;20423;-52
2023/07/08 04:18:24;;;;;;;6.77;5.77;;;15.00;99.90;;;;;;4992029;28;20038;-53
2023/07/08 04:20:52;;;;;;;9.05;5.82;;;15.10;99.90;;;;;;5082711;28;20094;-52
2023/07/08 04:23:18;;;;;;;8.75;6.00;;;15.10;99.90;;;;;;4986671;28;20384;-53
2023/07/08 04:25:44;;;;;;;5.95;5.32;;;15.10;99.90;;;;;;4986444;28;20034;-51
2023/07/08 04:28:10;;;;;;;8.60;6.07;;;15.20;99.90;;;;;;4986059;28;20030;-52
2023/07/08 04:30:40;;;;;;;6.35;5.75;;;15.20;99.90;;;;;;4986364;28;20026;-52
2023/07/08 04:33:09;;;;;;;10.45;6.53;;;15.20;99.90;;;;;;4971428;28;20299;-52
2023/07/08 04:35:38;;;;;;;7.70;5.70;;;15.30;99.90;;;;;;4989605;28;20419;-51
2023/07/08 04:38:11;;;;;;;10.13;6.03;;;15.30;99.90;;;;;;4989508;28;20103;-51
2023/07/08 04:40:39;;;;;;;6.57;5.57;;;15.30;99.90;;;;;;4972031;28;20449;-52
2023/07/08 04:43:05;;;;;;;7.32;6.53;;;15.40;99.90;;;;;;4989460;28;20400;-52
2023/07/08 04:45:31;;;;;;;8.95;6.13;;;15.40;99.90;;;;;;4989714;28;20175;-52
2023/07/08 04:47:56;;;;;;;6.97;6.15;;;15.40;99.90;;;;;;4989256;28;20653;-52
2023/07/08 04:50:22;;;;;;;9.18;5.75;;;15.40;99.90;;;;;;5077058;28;20024;-49
2023/07/08 04:52:49;;;;;;;15.18;6.68;;;15.40;99.90;;;;;;5041492;28;20478;-53
2023/07/08 04:55:15;;;;;;;7.97;5.80;;;15.50;99.90;;;;;;4989326;28;20030;-53
2023/07/08 04:57:40;;;;;;;6.68;5.40;;;15.50;99.90;;;;;;4989214;28;20031;-52
2023/07/08 05:00:09;;;;;;;8.63;6.10;;;15.50;99.90;;;;;;5056620;28;20447;-51
2023/07/08 05:02:34;;;;;;;11.73;6.93;;;15.60;99.90;;;;;;4989110;28;20041;-53
2023/07/08 05:05:00;;;;;;;8.23;6.45;;;15.50;99.90;;;;;;4988475;28;20546;-51
2023/07/08 05:07:26;;;;;;;7.30;5.78;;;15.60;99.90;;;;;;4988717;28;20044;-52
2023/07/08 05:09:51;;;;;;;8.82;6.82;;;15.60;99.90;;;;;;4988584;28;20019;-52
2023/07/08 05:12:17;;;;;;;9.65;6.22;;;15.70;99.90;;;;;;4983609;28;20532;-49
2023/07/08 05:14:42;;;;;;;7.88;6.30;;;15.70;99.90;;;;;;4988499;28;20043;-51
2023/07/08 05:17:08;;;;;;;9.68;6.18;;;15.80;99.90;;;;;;4988881;28;20484;-50
2023/07/08 05:19:34;;;;;;;11.15;6.65;;;15.80;99.90;;;;;;5010956;28;20060;-51
2023/07/08 05:22:00;;;;;;;6.80;5.80;;;15.80;99.90;;;;;;5091710;28;20064;-51
2023/07/08 05:24:26;;;;;;;7.20;6.50;;;15.90;99.90;;;;;;5021830;28;20030;-49
2023/07/08 05:26:51;;;;;;;7.07;5.65;;;15.90;99.90;;;;;;4971412;28;20018;-50
2023/07/08 05:29:17;;;;;;;10.32;6.32;;;16.00;99.90;;;;;;4988681;28;20106;-51
2023/07/08 05:31:42;;;;;;;8.57;5.88;;;16.00;99.90;;;;;;4971553;28;20037;-52
2023/07/08 05:34:08;;;;;;;7.53;6.63;;;16.10;99.90;;;;;;4988156;28;20052;-52
2023/07/08 05:36:33;;;;;;;7.70;6.20;;;16.10;99.90;;;;;;4988928;28;20027;-52
2023/07/08 05:38:59;;;;;;;8.93;6.85;;;16.20;99.90;;;;;;4988633;28;20026;-50
2023/07/08 05:41:24;;;;;;;11.50;7.15;;;16.30;99.90;;;;;;4983954;28;20027;-51
2023/07/08 05:43:50;;;;;;;6.70;5.95;;;16.30;99.90;;;;;;4978677;28;20022;-52
2023/07/08 05:46:15;;;;;;;10.23;6.40;;;16.30;99.90;;;;;;4985605;28;20362;-52
2023/07/08 05:48:41;;;;;;;10.35;6.53;;;16.40;99.90;;;;;;4987906;28;20031;-51
2023/07/08 05:51:06;;;;;;;8.07;6.25;;;16.50;99.90;;;;;;4986851;28;20034;-53
2023/07/08 05:53:32;;;;;;;7.72;6.53;;;16.50;99.90;;;;;;4987110;28;20026;-52
2023/07/08 05:55:57;;;;;;;7.47;6.55;;;16.60;99.90;;;;;;4980700;28;20407;-51
2023/07/08 05:58:23;;;;;;;11.60;6.68;;;16.70;99.90;;;;;;4978480;28;20034;-51
2023/07/08 06:00:55;;;;;;;11.02;7.35;;;16.80;99.90;;;;;;4979271;28;20029;-51
2023/07/08 06:03:21;;;;;;;9.65;6.13;;;16.90;99.90;;;;;;4979363;28;20388;-49
2023/07/08 06:05:46;;;;;;;8.48;6.53;;;16.90;99.90;;;;;;4980498;28;20030;-51
2023/07/08 06:08:12;;;;;;;8.98;6.63;;;17.00;99.90;;;;;;4983260;28;20027;-50
2023/07/08 06:10:42;;;;;;;7.70;6.10;;;17.10;99.90;;;;;;4993906;28;20015;-52
2023/07/08 06:13:08;;;;;;;9.27;6.70;;;17.10;99.90;;;;;;4992259;28;20566;-52
2023/07/08 06:15:33;;;;;;;8.43;6.90;;;17.20;99.90;;;;;;4997544;28;20160;-51
2023/07/08 06:18:02;;;;;;;7.72;6.88;;;17.30;99.90;;;;;;4990826;28;20060;-52
2023/07/08 06:20:28;;;;;;;9.13;6.28;;;17.40;99.90;;;;;;5034074;28;20031;-52
2023/07/08 06:22:53;;;;;;;9.15;6.82;;;17.50;99.90;;;;;;5052658;28;20142;-53
2023/07/08 06:25:19;;;;;;;7.10;6.40;;;17.50;99.90;;;;;;4988303;28;20495;-51
2023/07/08 06:27:45;;;;;;;11.38;7.07;;;17.60;99.90;;;;;;4988240;28;20062;-51
2023/07/08 06:30:10;;;;;;;8.48;6.35;;;17.70;99.90;;;;;;4988122;28;20026;-52
2023/07/08 06:32:36;;;;;;;8.70;6.20;;;17.90;99.90;;;;;;4987929;28;20018;-51
2023/07/08 06:35:02;;;;;;;11.82;6.80;;;17.90;99.90;;;;;;4987842;28;20036;-52
2023/07/08 06:37:27;;;;;;;8.95;7.32;;;18.10;99.90;;;;;;4987421;28;20422;-52
2023/07/08 06:39:53;;;;;;;7.85;6.50;;;18.20;99.90;;;;;;4970315;28;20034;-52
2023/07/08 06:42:18;;;;;;;10.43;7.03;;;18.30;99.90;;;;;;4970168;28;20030;-52
2023/07/08 06:44:50;;;;;;;9.00;6.50;;;18.40;99.90;;;;;;4987254;28;20088;-51
2023/07/08 06:47:22;;;;;;;8.07;6.00;;;18.50;99.90;;;;;;4987427;28;20117;-51
2023/07/08 06:49:48;;;;;;;6.85;6.15;;;18.70;99.90;;;;;;5046331;28;20023;-52
2023/07/08 06:52:14;;;;;;;9.52;7.18;;;18.80;99.90;;;;;;5089757;28;20028;-51
2023/07/08 06:54:39;;;;;;;8.82;6.55;;;18.90;99.90;;;;;;5089101;28;20545;-51
2023/07/08 06:57:05;;;;;;;7.47;5.82;;;19.00;99.90;;;;;;5039156;28;20121;-51
2023/07/08 06:59:31;;;;;;;6.28;5.68;;;19.20;99.90;;;;;;4987426;28;20045;-52
2023/07/08 07:01:57;;;;;;;8.35;6.13;;;19.30;99.90;;;;;;4987758;28;20365;-52
2023/07/08 07:04:22;;;;;;;8.02;6.63;;;19.40;99.90;;;;;;4986873;28;20035;-50
2023/07/08 07:06:48;;;;;;;9.43;6.35;;;19.60;99.90;;;;;;4986926;28;20387;-54
2023/07/08 07:09:13;;;;;;;8.50;6.72;;;19.70;99.90;;;;;;4987271;28;20027;-54
2023/07/08 07:11:39;;;;;;;6.65;5.70;;;19.80;99.90;;;;;;4987575;28;20026;-54
2023/07/08 07:14:04;;;;;;;6.65;5.95;;;20.00;99.90;;;;;;4987625;28;20019;-54
2023/07/08 07:16:30;;;;;;;10.98;6.55;;;20.10;99.90;;;;;;4987563;28;20031;-54
2023/07/08 07:18:55;;;;;;;10.40;6.57;;;20.30;99.90;;;;;;5008000;28;20028;-54
2023/07/08 07:21:21;;;;;;;6.78;6.07;;;20.40;99.90;;;;;;5077130;28;20022;-54
2023/07/08 07:23:47;;;;;;;8.23;6.25;;;20.60;99.90;;;;;;4993349;28;20018;-54
2023/07/08 07:26:13;;;;;;;8.40;6.28;;;20.60;99.90;;;;;;4986864;28;20034;-54
2023/07/08 07:28:38;;;;;;;6.97;5.75;;;20.80;99.90;;;;;;4986215;28;20030;-54
2023/07/08 07:31:06;;;;;;;8.45;5.57;;;21.00;99.90;;;;;;4970199;28;20034;-54
2023/07/08 07:33:31;;;;;;;8.18;7.38;;;21.10;99.90;;;;;;4987281;28;20068;-54
2023/07/08 07:35:58;;;;;;;11.15;6.88;;;21.30;99.40;;;;;;4986936;28;20066;-54
2023/07/08 07:38:28;;;;;;;7.03;6.10;;;21.40;99.40;;;;;;4986708;28;20491;-54
2023/07/08 07:40:54;;;;;;;10.95;6.65;;;21.60;98.60;;;;;;4987137;28;20034;-54
2023/07/08 07:43:20;;;;;;;7.30;6.03;;;21.80;98.80;;;;;;4986833;28;20030;-55
2023/07/08 07:45:50;;;;;;;8.35;6.50;;;21.90;97.30;;;;;;4987002;28;20080;-54
2023/07/08 07:48:15;;;;;;;8.55;6.32;;;22.10;98.30;;;;;;4986200;28;20033;-54
2023/07/08 07:50:45;;;;;;;8.55;6.82;;;22.10;99.00;;;;;;5081841;28;20389;-54
2023/07/08 07:53:11;;;;;;;8.40;5.60;;;22.40;98.00;;;;;;5089366;28;20068;-54
2023/07/08 07:55:37;;;;;;;7.97;5.40;;;22.60;97.00;;;;;;5020147;28;20062;-54
2023/07/08 07:58:02;;;;;;;6.45;5.53;;;22.80;97.30;;;;;;4986589;28;20493;-54
2023/07/08 08:00:29;;;;;;;7.05;5.45;;;22.90;97.10;;;;;;5031915;28;20488;-54
2023/07/08 08:02:55;;;;;;;6.47;5.43;;;23.10;96.90;;;;;;4986825;28;20487;-54
2023/07/08 08:05:20;;;;;;;8.50;6.35;;;23.30;96.70;;;;;;4985826;28;20038;-54
2023/07/08 08:07:47;;;;;;;7.47;5.93;;;23.50;95.70;;;;;;4989282;28;20022;-55
2023/07/08 08:10:13;;;;;;;6.35;5.70;;;23.80;95.20;;;;;;4989701;28;20019;-54
2023/07/08 08:12:39;;;;;;;6.80;6.10;;;24.10;93.80;;;;;;4990222;28;20428;-54
2023/07/08 08:15:05;;;;;;;9.25;5.93;;;24.30;95.00;;;;;;4989960;28;20030;-55
2023/07/08 08:17:30;;;;;;;7.75;4.93;;;24.70;94.80;;;;;;4972543;28;20513;-54
2023/07/08 08:19:56;;;;;;;6.70;5.07;;;25.20;94.00;;;;;;5052284;28;20036;-54
2023/07/08 08:22:21;;;;;;;4.70;4.30;;;26.20;92.00;;;;;;5079612;28;20039;-55
2023/07/08 08:24:47;;;;;;;7.18;4.53;;;27.70;90.50;;;;;;5092445;28;20479;-55
2023/07/08 08:27:12;;;;;;;6.40;4.55;;;28.90;86.80;;;;;;5026012;28;20027;-55
2023/07/08 08:29:38;;;;;;;4.38;3.63;;;30.20;80.40;;;;;;4988733;28;20041;-53
2023/07/08 08:32:04;;;;;;;4.35;3.75;;;31.20;76.50;;;;;;4989831;28;20083;-53
2023/07/08 08:34:29;;;;;;;4.38;3.70;;;32.00;75.00;;;;;;4988637;28;20458;-53
2023/07/08 08:36:55;;;;;;;5.30;3.75;;;33.00;72.50;;;;;;4988999;28;20060;-53
2023/07/08 08:39:21;;;;;;;5.88;3.60;;;33.70;69.30;;;;;;4988868;28;20029;-53
2023/07/08 08:41:49;;;;;;;6.22;4.00;;;34.10;67.80;;;;;;4989176;28;20031;-54
2023/07/08 08:44:20;;;;;;;5.30;3.83;;;34.80;61.50;;;;;;4989092;28;20026;-53
2023/07/08 08:47:00;;;;;;;4.43;4.03;;;35.60;61.80;;;;;;4976620;28;20058;-53
2023/07/08 08:49:32;;;;;;;7.45;3.97;;;36.10;60.90;;;;;;4989195;28;20050;-53
2023/07/08 08:51:58;;;;;;;4.47;3.40;;;36.60;59.20;;;;;;5052071;28;20032;-54
2023/07/08 08:54:25;;;;;;;6.55;3.42;;;37.00;58.20;;;;;;5049435;28;20273;-54
2023/07/08 08:57:35;;;;;;;3.50;3.20;;;37.20;54.90;;;;;;4989027;28;20095;-53
2023/07/08 09:00:01;;;;;;;10.73;3.30;;;37.70;55.80;;;;;;4984662;28;20140;-54
2023/07/08 09:02:51;;;;;;;5.18;2.90;;;38.00;57.30;;;;;;4954105;28;20042;-54
2023/07/08 09:05:18;;;;;;;5.72;3.08;;;38.30;55.30;;;;;;4969351;28;20035;-54
2023/07/08 09:08:00;;;;;;;5.55;3.17;;;38.60;54.40;;;;;;4987201;28;20037;-54
2023/07/08 09:10:32;;;;;;;8.88;3.40;;;39.00;53.30;;;;;;4988883;28;20029;-54
2023/07/08 09:13:00;;;;;;;5.25;3.80;;;39.30;52.80;;;;;;4989272;28;20158;-54
2023/07/08 09:15:26;;;;;;;4.35;3.40;;;39.50;53.20;;;;;;4978282;28;20109;-54
2023/07/08 09:17:56;;;;;;;5.13;2.95;;;39.70;52.30;;;;;;4975914;28;20075;-54
2023/07/08 09:20:29;;;;;;;3.95;3.10;;;39.80;51.50;;;;;;5039430;28;20399;-54
2023/07/08 09:23:22;;;;;;;5.57;3.08;;;40.10;49.20;;;;;;5008920;28;20033;-54
2023/07/08 09:25:58;;;;;;;5.72;3.00;;;40.30;50.50;;;;;;4982767;28;20069;-54
2023/07/08 09:28:39;;;;;;;10.65;3.20;;;39.70;47.30;;;;;;4988697;28;20608;-54
2023/07/08 09:31:07;;;;;;;5.60;2.92;;;40.20;49.50;;;;;;4990633;28;20118;-54
2023/07/08 09:33:34;;;;;;;5.33;3.00;;;40.70;49.90;;;;;;4988757;28;20023;-54
2023/07/08 09:36:00;;;;;;;5.40;2.88;;;40.50;52.30;;;;;;4987740;28;20029;-54
2023/07/08 09:38:26;;;;;;;3.47;2.70;;;40.70;48.50;;;;;;4984153;28;20025;-54
2023/07/08 09:40:55;;;;;;;3.40;3.10;;;40.70;50.00;;;;;;4970356;28;20034;-54
2023/07/08 09:43:34;;;;;;;4.45;3.00;;;41.20;47.90;;;;;;4976643;28;20031;-54
2023/07/08 09:45:59;;;;;;;5.90;3.08;;;41.40;45.90;;;;;;4988457;28;20116;-54
2023/07/08 09:48:29;;;;;;;4.82;2.92;;;41.00;46.60;;;;;;4988665;28;20535;-54
2023/07/08 09:50:57;;;;;;;4.78;2.72;;;41.80;46.80;;;;;;5088616;28;20415;-54
2023/07/08 09:53:23;;;;;;;3.08;2.63;;;42.40;46.70;;;;;;5049284;28;20611;-53
2023/07/08 09:55:51;;;;;;;3.30;2.70;;;42.40;45.70;;;;;;4987083;28;20030;-53
2023/07/08 09:58:29;;;;;;;4.28;2.50;;;42.70;47.00;;;;;;4987065;28;20119;-53
2023/07/08 10:00:55;;;;;;;;;;;42.50;45.20;;;;;;4986976;28;20035;-53
2023/07/08 10:03:23;;;;;;;6.30;2.83;;;42.30;44.80;;;;;;4984890;28;19914;-53
2023/07/08 10:05:52;;;;;;;4.78;2.78;;;42.20;47.30;;;;;;4972427;28;20037;-53
2023/07/08 10:08:21;;;;;;;4.10;2.70;;;42.40;44.80;;;;;;4967259;28;20129;-53
2023/07/08 10:10:52;;;;;;;5.85;3.13;;;42.50;44.40;;;;;;5045501;28;20032;-53
2023/07/08 10:13:37;;;;;;;3.90;2.40;;;42.60;45.50;;;;;;4998114;28;20042;-53
2023/07/08 10:16:20;;;;;;;3.25;2.95;;;42.70;43.00;;;;;;5004726;28;20038;-53
2023/07/08 10:18:46;;;;;;;3.88;2.88;;;42.60;44.60;;;;;;4996314;28;20027;-53
2023/07/08 10:21:41;;;;;;;4.20;2.95;;;42.30;43.10;;;;;;5071822;28;20020;-53
2023/07/08 10:24:37;;;;;;;6.13;3.17;;;42.90;43.20;;;;;;5026561;28;20046;-53
2023/07/08 10:27:26;;;;;;;3.75;2.70;;;42.60;43.50;;;;;;4990733;28;20031;-53
2023/07/08 10:30:11;;;;;;;6.40;3.00;;;42.30;43.10;;;;;;4984695;28;20032;-53
2023/07/08 10:33:31;;;;;;;5.43;2.78;;;42.20;43.00;;;;;;4991572;28;20058;-53
2023/07/08 10:36:09;;;;;;;5.25;3.35;;;42.50;43.00;;;;;;4968966;28;20055;-53
2023/07/08 10:38:46;;;;;;;4.20;2.80;;;42.50;42.20;;;;;;4977805;28;20403;-53
2023/07/08 10:41:24;;;;;;;3.10;2.70;;;42.20;43.50;;;;;;4999253;28;20430;-53
2023/07/08 10:44:07;;;;;;;;;;;42.20;41.30;;;;;;4970270;28;20388;-53
2023/07/08 10:46:52;;;;;;;3.17;2.55;;;42.20;44.10;;;;;;4978338;28;19921;-54
2023/07/08 10:49:50;;;;;;;2.97;2.53;;;42.50;42.70;;;;;;5011235;28;20028;-54
2023/07/08 10:52:30;;;;;;;3.58;3.00;;;42.30;43.10;;;;;;4987648;28;20038;-53
2023/07/08 10:55:17;;;;;;;6.18;2.80;;;42.70;42.70;;;;;;4980997;28;20027;-53
2023/07/08 10:57:55;;;;;;;6.78;3.00;;;43.10;42.80;;;;;;4984389;28;20030;-53
2023/07/08 11:00:34;;;;;;;5.50;2.70;;;43.20;41.90;;;;;;4976630;28;20096;-53
2023/07/08 11:03:14;;;;;;;5.28;2.72;;;42.30;39.60;;;;;;4997232;28;20073;-53
2023/07/08 11:05:43;;;;;;;4.88;2.78;;;42.40;41.30;;;;;;4989606;28;20060;-53
2023/07/08 11:08:19;;;;;;;3.95;2.92;;;42.60;41.40;;;;;;4984768;28;20054;-53
2023/07/08 11:11:03;;;;;;;2.65;2.45;;;42.50;41.80;;;;;;4984535;28;20026;-53
2023/07/08 11:13:31;;;;;;;4.07;3.15;;;42.30;41.00;;;;;;4985132;28;20022;-53
2023/07/08 11:16:06;;;;;;;;;;;42.60;41.20;;;;;;4987298;28;20030;-53
2023/07/08 11:18:41;;;;;;;3.67;2.92;;;42.10;39.50;;;;;;4985393;28;19949;-53
2023/07/08 11:21:16;;;;;;;3.33;3.03;;;42.10;41.70;;;;;;4985813;28;20035;-53
2023/07/08 11:23:47;;;;;;;6.13;2.65;;;42.30;42.60;;;;;;4986913;28;20113;-53
2023/07/08 11:26:38;;;;;;;4.65;3.15;;;42.60;41.60;;;;;;4970327;28;20027;-53
2023/07/08 11:29:20;;;;;;;3.45;2.83;;;42.80;40.90;;;;;;4972775;28;20031;-53
2023/07/08 11:31:47;;;;;;;2.95;2.67;;;42.50;42.30;;;;;;5023486;28;20031;-53
2023/07/08 11:34:15;;;;;;;4.22;3.22;;;42.80;40.70;;;;;;4986831;28;20494;-53
2023/07/08 11:36:43;;;;;;;3.33;2.97;;;42.90;38.40;;;;;;4987572;28;20392;-53
2023/07/08 11:39:28;;;;;;;5.22;3.13;;;42.80;37.00;;;;;;4969435;28;20062;-53
2023/07/08 11:42:20;;;;;;;4.32;2.70;;;42.30;37.20;;;;;;4969643;28;20392;-53
2023/07/08 11:44:58;;;;;;;4.00;3.03;;;42.30;38.20;;;;;;4988432;28;20426;-53
2023/07/08 11:47:37;;;;;;;4.95;2.90;;;41.70;40.30;;;;;;4988217;28;20476;-53
2023/07/08 11:50:17;;;;;;;5.05;3.08;;;42.30;41.00;;;;;;4985302;28;20426;-53
2023/07/08 11:52:59;;;;;;;4.65;3.03;;;42.50;41.20;;;;;;4998178;28;20022;-53
2023/07/08 11:55:38;;;;;;;3.30;3.00;;;42.20;42.10;;;;;;4987158;28;20118;-53
2023/07/08 11:58:18;;;;;;;3.30;3.00;;;42.50;40.20;;;;;;5036831;28;20031;-53
2023/07/08 12:00:59;;;;;;;3.10;2.90;;;42.10;41.80;;;;;;4998437;28;20041;-53
2023/07/08 12:03:37;;;;;;;6.30;3.20;;;41.90;41.20;;;;;;4986848;28;20479;-53
2023/07/08 12:06:25;;;;;;;3.63;3.33;;;40.90;38.80;;;;;;4986860;28;20394;-53
2023/07/08 12:08:53;;;;;;;6.20;3.35;;;40.20;41.80;;;;;;4988574;28;20027;-53
2023/07/08 12:11:18;;;;;;;5.72;3.60;;;40.20;42.90;;;;;;4989552;28;20049;-53
2023/07/08 12:13:44;;;;;;;3.67;3.20;;;39.90;42.80;;;;;;4972463;28;20014;-53
2023/07/08 12:16:13;;;;;;;5.70;3.35;;;39.60;42.40;;;;;;4989536;28;20121;-53
2023/07/08 12:18:45;;;;;;;4.13;3.72;;;38.50;40.60;;;;;;4989381;28;20038;-53
2023/07/08 12:21:12;;;;;;;6.15;4.32;;;37.90;41.10;;;;;;5052738;28;20469;-53
2023/07/08 12:23:45;;;;;;;4.53;4.03;;;37.80;44.40;;;;;;4991057;28;20065;-53
2023/07/08 12:26:11;;;;;;;4.38;3.95;;;37.90;43.20;;;;;;4989863;28;20057;-53
2023/07/08 12:28:38;;;;;;;7.55;3.95;;;37.80;45.00;;;;;;4988852;28;20365;-53
2023/07/08 12:31:18;;;;;;;6.35;3.38;;;37.70;45.20;;;;;;4988970;28;20532;-53
2023/07/08 12:33:46;;;;;;;5.60;3.83;;;37.20;46.30;;;;;;4998071;28;20049;-53
2023/07/08 12:36:22;;;;;;;6.70;4.15;;;37.10;44.50;;;;;;4988757;28;20045;-53
2023/07/08 12:38:49;;;;;;;6.35;4.10;;;36.90;45.40;;;;;;4982785;28;20088;-53
2023/07/08 12:41:20;;;;;;;4.47;3.78;;;36.80;44.90;;;;;;5003641;28;20484;-53
2023/07/08 12:43:47;;;;;;;5.57;4.15;;;36.80;44.50;;;;;;4995135;28;20037;-53
2023/07/08 12:46:13;;;;;;;5.55;3.95;;;36.70;44.10;;;;;;5009483;28;20062;-54
2023/07/08 12:48:40;;;;;;;5.28;4.18;;;36.50;45.90;;;;;;5006063;28;20029;-53
2023/07/08 12:51:12;;;;;;;5.53;4.28;;;36.60;46.30;;;;;;5088555;28;20069;-53
2023/07/08 12:53:37;;;;;;;7.95;4.30;;;36.60;47.20;;;;;;5090992;28;20308;-53
2023/07/08 12:56:04;;;;;;;7.32;4.95;;;36.60;48.40;;;;;;5037321;28;20034;-54
2023/07/08 12:58:36;;;;;;;5.53;4.30;;;36.50;44.50;;;;;;5073520;28;20032;-53
2023/07/08 13:01:04;;;;;;;5.25;4.20;;;36.50;46.30;;;;;;5009143;28;20029;-53